createdAt,value
2023-03-30T00:00:18.735Z,12.57
2023-03-30T00:02:47.456Z,13.65
2023-03-30T00:05:15.848Z,10.95
2023-03-30T00:07:43.291Z,12.18
2023-03-30T00:10:12.919Z,11.95
2023-03-30T00:12:40.740Z,10.60
2023-03-30T00:15:09.633Z,11.80
2023-03-30T00:17:36.640Z,11.05
2023-03-30T00:20:11.089Z,11.00
2023-03-30T00:22:42.382Z,10.65
2023-03-30T00:25:14.531Z,11.32
2023-03-30T00:27:41.882Z,10.38
2023-03-30T00:30:12.375Z,10.35
2023-03-30T00:32:39.609Z,10.10
2023-03-30T00:35:07.132Z,9.82
2023-03-30T00:37:37.335Z,10.25
2023-03-30T00:40:09.701Z,10.07
2023-03-30T00:42:37.446Z,10.18
2023-03-30T00:45:19.396Z,8.70
2023-03-30T00:47:59.177Z,9.23
2023-03-30T00:50:48.266Z,9.50
2023-03-30T00:53:47.212Z,9.10
2023-03-30T00:56:17.614Z,8.38
2023-03-30T00:58:45.328Z,8.30
2023-03-30T01:01:18.896Z,7.35
2023-03-30T01:03:48.276Z,7.38
2023-03-30T01:06:18.012Z,6.40
2023-03-30T01:08:45.662Z,6.68
2023-03-30T01:11:12.514Z,7.30
2023-03-30T01:13:44.547Z,7.18
2023-03-30T01:16:40.914Z,6.03
2023-03-30T01:19:24.565Z,6.28
2023-03-30T01:21:51.605Z,6.30
2023-03-30T01:24:36.668Z,4.93
2023-03-30T01:27:27.810Z,5.07
2023-03-30T01:30:19.212Z,4.63
2023-03-30T01:33:21.326Z,5.85
2023-03-30T01:36:13.148Z,4.80
2023-03-30T01:39:01.316Z,4.13
2023-03-30T01:41:37.324Z,4.35
2023-03-30T01:44:22.630Z,4.75
2023-03-30T01:46:57.266Z,4.70
2023-03-30T01:49:53.135Z,4.70
2023-03-30T01:52:43.839Z,3.88
2023-03-30T01:55:19.915Z,5.10
2023-03-30T01:57:49.613Z,4.20
2023-03-30T02:00:20.314Z,5.25
2023-03-30T02:03:01.051Z,4.47
2023-03-30T02:05:30.766Z,4.57
2023-03-30T02:08:03.027Z,3.90
2023-03-30T02:10:34.471Z,5.07
2023-03-30T02:13:03.108Z,3.55
2023-03-30T02:15:41.035Z,4.05
2023-03-30T02:18:08.259Z,4.18
2023-03-30T02:20:35.933Z,3.90
2023-03-30T02:23:06.156Z,4.65
2023-03-30T02:25:36.555Z,4.10
2023-03-30T02:28:03.903Z,3.92
2023-03-30T02:30:34.376Z,4.07
2023-03-30T02:33:01.607Z,3.97
2023-03-30T02:36:06.477Z,3.97
2023-03-30T02:38:46.270Z,3.38
2023-03-30T02:41:31.955Z,3.88
2023-03-30T02:44:34.506Z,3.83
2023-03-30T02:47:23.634Z,3.50
2023-03-30T02:49:55.125Z,2.97
2023-03-30T02:52:39.358Z,3.75
2023-03-30T02:55:36.793Z,3.33
2023-03-30T02:58:09.709Z,4.20
2023-03-30T03:00:59.702Z,3.45
2023-03-30T03:03:36.100Z,3.78
2023-03-30T03:06:04.556Z,3.50
2023-03-30T03:08:36.414Z,3.47
2023-03-30T03:11:03.857Z,3.50
2023-03-30T03:13:31.038Z,3.17
2023-03-30T03:15:57.863Z,3.90
2023-03-30T03:18:24.864Z,3.55
2023-03-30T03:20:51.911Z,4.03
2023-03-30T03:23:18.672Z,3.33
2023-03-30T03:25:45.580Z,3.38
2023-03-30T03:28:12.365Z,3.60
2023-03-30T03:30:39.454Z,3.58
2023-03-30T03:33:06.480Z,3.60
2023-03-30T03:35:33.688Z,3.22
2023-03-30T03:38:00.561Z,3.42
2023-03-30T03:40:27.412Z,3.47
2023-03-30T03:42:54.184Z,3.58
2023-03-30T03:45:21.026Z,3.45
2023-03-30T03:47:51.251Z,3.38
2023-03-30T03:50:18.702Z,3.30
2023-03-30T03:52:45.874Z,3.22
2023-03-30T03:55:13.030Z,3.70
2023-03-30T03:57:40.209Z,3.50
2023-03-30T04:00:15.621Z,4.10
2023-03-30T04:02:44.170Z,2.83
2023-03-30T04:05:11.684Z,3.08
2023-03-30T04:07:38.691Z,3.30
2023-03-30T04:10:07.136Z,2.92
2023-03-30T04:12:34.180Z,2.90
2023-03-30T04:15:01.130Z,2.95
2023-03-30T04:17:28.257Z,3.13
2023-03-30T04:19:55.499Z,3.03
2023-03-30T04:22:26.647Z,2.70
2023-03-30T04:24:53.953Z,3.28
2023-03-30T04:27:20.815Z,3.08
2023-03-30T04:29:47.574Z,3.33
2023-03-30T04:32:22.922Z,2.63
2023-03-30T04:34:54.570Z,3.58
2023-03-30T04:37:24.010Z,3.28
2023-03-30T04:39:50.807Z,3.35
2023-03-30T04:42:20.182Z,3.28
2023-03-30T04:44:50.586Z,3.83
2023-03-30T04:47:17.958Z,3.75
2023-03-30T04:49:44.853Z,3.90
2023-03-30T04:52:11.657Z,3.72
2023-03-30T04:54:38.472Z,3.42
2023-03-30T04:57:05.295Z,3.17
2023-03-30T04:59:32.156Z,3.25
2023-03-30T05:01:58.982Z,3.13
2023-03-30T05:04:25.952Z,3.22
2023-03-30T05:06:52.868Z,4.28
2023-03-30T05:09:19.797Z,3.33
2023-03-30T05:11:46.695Z,2.85
2023-03-30T05:14:14.761Z,2.63
2023-03-30T05:16:42.067Z,2.75
2023-03-30T05:19:09.254Z,2.70
2023-03-30T05:21:36.185Z,3.30
2023-03-30T05:24:03.193Z,3.10
2023-03-30T05:26:30.048Z,2.40
2023-03-30T05:28:56.906Z,2.55
2023-03-30T05:31:23.759Z,3.47
2023-03-30T05:33:52.087Z,2.75
2023-03-30T05:36:19.137Z,2.50
2023-03-30T05:38:46.134Z,3.47
2023-03-30T05:41:13.185Z,2.97
2023-03-30T05:43:39.990Z,2.70
2023-03-30T05:46:10.006Z,2.70
2023-03-30T05:48:36.980Z,3.15
2023-03-30T05:51:04.224Z,3.15
2023-03-30T05:53:31.376Z,2.67
2023-03-30T05:55:58.194Z,1.92
2023-03-30T05:58:25.113Z,3.10
2023-03-30T06:00:52.574Z,2.55
2023-03-30T06:03:19.640Z,2.28
2023-03-30T06:05:46.615Z,2.53
2023-03-30T06:08:13.560Z,2.42
2023-03-30T06:10:41.711Z,2.50
2023-03-30T06:13:08.565Z,2.40
2023-03-30T06:15:35.462Z,2.50
2023-03-30T06:18:04.067Z,2.50
2023-03-30T06:20:31.105Z,2.40
2023-03-30T06:22:57.929Z,2.33
2023-03-30T06:25:24.765Z,2.65
2023-03-30T06:27:52.152Z,3.42
2023-03-30T06:30:22.106Z,2.80
2023-03-30T06:32:49.254Z,2.13
2023-03-30T06:35:16.214Z,2.40
2023-03-30T06:37:43.173Z,2.30
2023-03-30T06:40:13.338Z,2.20
2023-03-30T06:42:41.505Z,2.53
2023-03-30T06:45:09.239Z,2.38
2023-03-30T06:47:36.716Z,2.45
2023-03-30T06:50:04.904Z,2.20
2023-03-30T06:52:35.296Z,2.53
2023-03-30T06:55:02.449Z,2.60
2023-03-30T06:57:29.431Z,2.50
2023-03-30T06:59:56.764Z,2.42
2023-03-30T07:02:23.731Z,2.35
2023-03-30T07:04:51.957Z,2.15
2023-03-30T07:07:19.208Z,2.45
2023-03-30T07:09:46.183Z,2.03
2023-03-30T07:12:13.078Z,1.92
2023-03-30T07:14:39.912Z,2.05
2023-03-30T07:17:07.943Z,2.30
2023-03-30T07:19:34.901Z,2.67
2023-03-30T07:22:02.076Z,2.30
2023-03-30T07:24:31.288Z,2.75
2023-03-30T07:26:58.135Z,2.67
2023-03-30T07:29:25.228Z,3.05
2023-03-30T07:31:52.097Z,2.28
2023-03-30T07:34:18.950Z,2.75
2023-03-30T07:36:45.782Z,2.35
2023-03-30T07:39:12.697Z,2.30
2023-03-30T07:41:39.537Z,1.77
2023-03-30T07:44:06.398Z,2.30
2023-03-30T07:46:33.289Z,2.05
2023-03-30T07:49:00.623Z,1.95
2023-03-30T07:51:28.094Z,2.92
2023-03-30T07:53:55.172Z,3.60
2023-03-30T07:56:22.068Z,2.60
2023-03-30T07:58:49.034Z,1.70
2023-03-30T08:01:15.829Z,3.53
2023-03-30T08:03:45.096Z,3.78
2023-03-30T08:06:12.374Z,2.83
2023-03-30T08:08:41.117Z,3.67
2023-03-30T08:11:09.192Z,4.05
2023-03-30T08:13:37.369Z,3.15
2023-03-30T08:16:04.727Z,2.72
2023-03-30T08:18:31.670Z,2.83
2023-03-30T08:20:58.583Z,3.70
2023-03-30T08:23:25.488Z,3.63
2023-03-30T08:25:52.960Z,3.78
2023-03-30T08:28:21.323Z,3.30
2023-03-30T08:30:48.737Z,3.40
2023-03-30T08:33:16.241Z,3.17
2023-03-30T08:35:47.997Z,3.38
2023-03-30T08:38:19.066Z,4.18
2023-03-30T08:40:48.677Z,3.22
2023-03-30T08:43:55.680Z,3.42
2023-03-30T08:46:22.804Z,4.63
2023-03-30T08:48:51.300Z,4.00
2023-03-30T08:51:30.153Z,3.72
2023-03-30T08:54:01.517Z,3.83
2023-03-30T08:56:52.423Z,3.40
2023-03-30T08:59:39.605Z,4.13
2023-03-30T09:02:30.865Z,4.93
2023-03-30T09:05:02.050Z,5.95
2023-03-30T09:07:51.911Z,3.83
2023-03-30T09:10:19.969Z,3.33
2023-03-30T09:12:54.232Z,4.13
2023-03-30T09:15:31.261Z,4.25
2023-03-30T09:18:28.363Z,4.55
2023-03-30T09:20:58.496Z,4.18
2023-03-30T09:23:29.776Z,4.53
2023-03-30T09:26:23.813Z,4.55
2023-03-30T09:29:01.916Z,3.40
2023-03-30T09:31:34.879Z,4.22
2023-03-30T09:34:12.949Z,3.28
2023-03-30T09:37:03.157Z,3.67
2023-03-30T09:39:33.880Z,4.22
2023-03-30T09:42:34.209Z,4.07
2023-03-30T09:45:28.113Z,3.90
2023-03-30T09:47:55.195Z,4.53
2023-03-30T09:50:26.753Z,3.65
2023-03-30T09:53:01.416Z,4.90
2023-03-30T09:55:32.686Z,3.10
2023-03-30T09:58:11.757Z,4.15
2023-03-30T10:00:39.341Z,3.92
2023-03-30T10:03:08.187Z,2.95
2023-03-30T10:05:37.615Z,3.70
2023-03-30T10:08:07.225Z,3.33
2023-03-30T10:10:40.967Z,3.17
2023-03-30T10:13:10.553Z,4.22
2023-03-30T10:15:40.765Z,2.80
2023-03-30T10:18:36.982Z,3.38
2023-03-30T10:21:15.104Z,3.33
2023-03-30T10:23:45.087Z,3.60
2023-03-30T10:26:19.339Z,4.05
2023-03-30T10:29:11.084Z,4.13
2023-03-30T10:31:42.767Z,4.38
2023-03-30T10:34:28.313Z,4.70
2023-03-30T10:36:55.290Z,4.00
2023-03-30T10:39:30.314Z,3.65
2023-03-30T10:42:00.122Z,3.30
2023-03-30T10:44:35.881Z,2.88
2023-03-30T10:47:08.801Z,4.95
2023-03-30T10:49:42.790Z,4.47
2023-03-30T10:52:27.012Z,2.95
2023-03-30T10:55:11.017Z,2.72
2023-03-30T10:58:00.936Z,3.28
2023-03-30T11:01:06.372Z,3.20
2023-03-30T11:03:34.043Z,4.00
2023-03-30T11:06:10.274Z,3.50
2023-03-30T11:08:44.496Z,2.08
2023-03-30T11:11:27.396Z,2.70
2023-03-30T11:14:02.476Z,3.08
2023-03-30T11:16:45.323Z,2.67
2023-03-30T11:19:25.088Z,3.92
2023-03-30T11:22:04.740Z,2.47
2023-03-30T11:24:33.932Z,2.35
2023-03-30T11:27:06.068Z,2.67
2023-03-30T11:29:38.757Z,2.63
2023-03-30T11:32:32.008Z,3.28
2023-03-30T11:35:10.919Z,1.95
2023-03-30T11:37:51.185Z,2.63
2023-03-30T11:40:20.490Z,3.30
2023-03-30T11:42:48.819Z,3.05
2023-03-30T11:45:53.714Z,2.83
2023-03-30T11:48:52.094Z,3.05
2023-03-30T11:51:52.645Z,2.85
2023-03-30T11:55:03.548Z,3.65
2023-03-30T11:57:45.178Z,3.40
2023-03-30T12:00:24.258Z,4.13
2023-03-30T12:03:21.989Z,2.88
2023-03-30T12:06:00.121Z,3.80
2023-03-30T12:08:46.917Z,3.35
2023-03-30T12:11:27.392Z,3.13
2023-03-30T12:13:54.675Z,3.72
2023-03-30T12:16:31.906Z,3.60
2023-03-30T12:19:25.287Z,3.28
2023-03-30T12:22:06.958Z,3.55
2023-03-30T12:24:40.480Z,3.83
2023-03-30T12:32:28.962Z,4.03
2023-03-30T12:34:57.617Z,3.55
2023-03-30T12:37:37.588Z,3.17
2023-03-30T12:40:22.424Z,4.15
2023-03-30T12:43:10.914Z,3.70
2023-03-30T12:46:02.215Z,4.65
2023-03-30T12:48:38.835Z,3.38
2023-03-30T12:51:27.047Z,3.65
2023-03-30T12:54:18.496Z,3.40
2023-03-30T12:57:10.815Z,3.53
2023-03-30T12:59:58.827Z,3.60
2023-03-30T13:02:37.577Z,3.42
2023-03-30T13:05:16.796Z,3.53
2023-03-30T13:07:44.196Z,3.75
2023-03-30T13:10:29.401Z,3.83
2023-03-30T13:12:58.294Z,3.65
2023-03-30T13:15:42.068Z,3.30
2023-03-30T13:18:08.880Z,3.78
2023-03-30T13:20:47.554Z,3.88
2023-03-30T13:23:14.471Z,2.92
2023-03-30T13:25:51.081Z,3.58
2023-03-30T13:28:57.243Z,3.88
2023-03-30T13:31:29.822Z,3.95
2023-03-30T13:34:18.292Z,3.85
2023-03-30T13:36:59.890Z,3.83
2023-03-30T13:39:42.642Z,3.90
2023-03-30T13:42:38.798Z,3.70
2023-03-30T13:45:24.423Z,4.43
2023-03-30T13:48:00.431Z,4.13
2023-03-30T13:50:31.427Z,4.90
2023-03-30T13:53:01.518Z,4.40
2023-03-30T13:55:33.647Z,4.28
2023-03-30T13:58:12.360Z,4.00
2023-03-30T14:00:50.306Z,3.65
2023-03-30T14:03:28.042Z,4.43
2023-03-30T14:06:03.749Z,5.22
2023-03-30T14:08:35.549Z,3.60
2023-03-30T14:11:15.498Z,4.22
2023-03-30T14:13:44.221Z,4.45
2023-03-30T14:16:18.401Z,3.95
2023-03-30T14:18:45.542Z,3.72
2023-03-30T14:21:18.608Z,3.25
2023-03-30T14:23:49.665Z,3.05
2023-03-30T14:26:19.593Z,3.72
2023-03-30T14:28:46.882Z,3.50
2023-03-30T14:31:17.747Z,2.85
2023-03-30T14:33:45.626Z,3.45
2023-03-30T14:36:16.865Z,4.15
2023-03-30T14:38:52.836Z,4.10
2023-03-30T14:41:28.054Z,3.95
2023-03-30T14:44:01.723Z,4.20
2023-03-30T14:46:38.206Z,3.80
2023-03-30T14:49:05.616Z,4.03
2023-03-30T14:51:42.419Z,3.30
2023-03-30T14:54:15.970Z,3.45
2023-03-30T14:56:57.782Z,5.13
2023-03-30T14:59:27.414Z,4.45
2023-03-30T15:01:55.743Z,4.75
2023-03-30T15:04:37.376Z,4.63
2023-03-30T15:07:05.032Z,6.50
2023-03-30T15:09:38.922Z,6.50
2023-03-30T15:12:06.503Z,3.72
2023-03-30T15:14:38.335Z,4.20
2023-03-30T15:17:21.720Z,4.10
2023-03-30T15:19:52.153Z,4.97
2023-03-30T15:22:37.650Z,4.40
2023-03-30T15:25:11.558Z,4.30
2023-03-30T15:27:58.658Z,3.58
2023-03-30T15:30:33.898Z,4.82
2023-03-30T15:33:01.521Z,4.32
2023-03-30T15:35:31.910Z,4.40
2023-03-30T15:38:01.748Z,4.40
2023-03-30T15:40:30.581Z,4.22
2023-03-30T15:43:19.621Z,4.60
2023-03-30T15:45:52.139Z,4.60
2023-03-30T15:48:23.769Z,3.08
2023-03-30T15:50:55.634Z,4.47
2023-03-30T15:53:40.829Z,4.68
2023-03-30T15:56:12.748Z,3.47
2023-03-30T15:58:39.973Z,4.10
2023-03-30T16:01:11.677Z,4.82
2023-03-30T16:03:43.262Z,4.45
2023-03-30T16:06:15.386Z,5.07
2023-03-30T16:08:44.459Z,4.23
2023-03-30T16:11:13.143Z,4.70
2023-03-30T16:13:43.729Z,5.32
2023-03-30T16:16:11.938Z,4.03
2023-03-30T16:18:40.330Z,4.90
2023-03-30T16:21:10.800Z,5.15
2023-03-30T16:23:38.021Z,4.43
2023-03-30T16:26:08.092Z,5.63
2023-03-30T16:28:35.379Z,6.15
2023-03-30T16:31:07.637Z,5.60
2023-03-30T16:33:36.889Z,4.72
2023-03-30T16:36:03.952Z,6.15
2023-03-30T16:38:31.382Z,4.97
2023-03-30T16:41:01.310Z,5.25
2023-03-30T16:43:28.253Z,4.82
2023-03-30T16:45:55.152Z,4.55
2023-03-30T16:48:24.409Z,4.97
2023-03-30T16:50:56.615Z,6.82
2023-03-30T16:53:24.033Z,5.78
2023-03-30T16:55:51.286Z,5.22
2023-03-30T16:58:20.762Z,5.43
2023-03-30T17:00:50.195Z,5.25
2023-03-30T17:03:18.819Z,5.47
2023-03-30T17:05:48.751Z,4.88
2023-03-30T17:08:26.221Z,4.18
2023-03-30T17:10:56.600Z,5.35
2023-03-30T17:13:24.117Z,5.03
2023-03-30T17:15:51.201Z,6.03
2023-03-30T17:18:28.415Z,5.78
2023-03-30T17:21:00.372Z,5.85
2023-03-30T17:23:29.943Z,4.10
2023-03-30T17:25:59.313Z,5.22
2023-03-30T17:28:29.469Z,5.07
2023-03-30T17:30:59.229Z,5.65
2023-03-30T17:33:26.354Z,5.38
2023-03-30T17:36:02.346Z,6.22
2023-03-30T17:38:29.914Z,5.32
2023-03-30T17:40:57.393Z,5.00
2023-03-30T17:43:27.186Z,4.53
2023-03-30T17:45:54.103Z,5.60
2023-03-30T17:48:25.325Z,5.40
2023-03-30T17:50:52.555Z,6.53
2023-03-30T17:53:20.729Z,5.10
2023-03-30T17:55:52.497Z,5.07
2023-03-30T17:58:23.969Z,5.55
2023-03-30T18:00:52.241Z,6.18
2023-03-30T18:03:21.313Z,4.45
2023-03-30T18:05:49.291Z,5.70
2023-03-30T18:08:23.175Z,4.82
2023-03-30T18:10:55.625Z,5.03
2023-03-30T18:13:28.887Z,5.00
2023-03-30T18:15:58.427Z,4.82
2023-03-30T18:18:28.410Z,4.15
2023-03-30T18:20:57.582Z,4.80
2023-03-30T18:23:24.545Z,4.05
2023-03-30T18:25:54.115Z,4.38
2023-03-30T18:28:26.872Z,4.85
2023-03-30T18:30:57.254Z,5.25
2023-03-30T18:33:24.782Z,6.13
2023-03-30T18:35:54.409Z,5.00
2023-03-30T18:38:25.642Z,4.75
2023-03-30T18:40:58.132Z,4.45
2023-03-30T18:43:26.611Z,4.95
2023-03-30T18:45:58.834Z,5.03
2023-03-30T18:48:28.516Z,5.45
2023-03-30T18:50:56.296Z,4.78
2023-03-30T18:53:28.400Z,4.72
2023-03-30T18:56:00.681Z,4.03
2023-03-30T18:58:33.722Z,4.22
2023-03-30T19:01:01.362Z,4.60
2023-03-30T19:03:30.117Z,5.88
2023-03-30T19:05:57.240Z,4.72
2023-03-30T19:08:26.038Z,4.90
2023-03-30T19:10:55.235Z,5.20
2023-03-30T19:13:23.112Z,3.80
2023-03-30T19:15:51.302Z,5.15
2023-03-30T19:18:18.985Z,4.47
2023-03-30T19:20:46.088Z,4.47
2023-03-30T19:23:14.812Z,3.67
2023-03-30T19:25:45.402Z,3.75
2023-03-30T19:28:13.542Z,4.05
2023-03-30T19:30:41.260Z,3.78
2023-03-30T19:33:12.153Z,4.88
2023-03-30T19:35:46.459Z,3.83
2023-03-30T19:38:14.574Z,5.70
2023-03-30T19:40:42.048Z,4.53
2023-03-30T19:43:09.699Z,4.78
2023-03-30T19:45:36.741Z,3.83
2023-03-30T19:48:04.123Z,3.92
2023-03-30T19:50:31.713Z,4.13
2023-03-30T19:52:58.992Z,4.05
2023-03-30T19:55:26.296Z,5.30
2023-03-30T19:57:53.288Z,4.75
2023-03-30T20:00:21.308Z,5.25
2023-03-30T20:02:50.743Z,3.45
2023-03-30T20:05:19.895Z,4.50
2023-03-30T20:07:49.307Z,4.07
2023-03-30T20:10:22.452Z,5.28
2023-03-30T20:15:17.121Z,4.18
2023-03-30T20:17:44.335Z,3.83
2023-03-30T20:20:25.088Z,4.45
2023-03-30T20:22:53.934Z,4.68
2023-03-30T20:25:26.401Z,4.10
2023-03-30T20:27:53.733Z,3.53
2023-03-30T20:30:21.212Z,3.83
2023-03-30T20:33:06.278Z,4.28
2023-03-30T20:35:39.998Z,3.55
2023-03-30T20:38:08.354Z,3.58
2023-03-30T20:40:35.507Z,3.83
2023-03-30T20:43:03.163Z,4.10
2023-03-30T20:45:46.719Z,4.38
2023-03-30T20:48:26.366Z,4.18
2023-03-30T20:50:55.437Z,4.20
2023-03-30T20:53:25.492Z,5.28
2023-03-30T20:55:56.113Z,4.10
2023-03-30T20:58:23.303Z,3.60
2023-03-30T21:00:54.322Z,3.78
2023-03-30T21:03:26.132Z,3.67
2023-03-30T21:06:05.105Z,4.50
2023-03-30T21:08:33.022Z,4.13
2023-03-30T21:11:00.721Z,3.63
2023-03-30T21:13:27.640Z,3.75
2023-03-30T21:15:59.914Z,4.35
2023-03-30T21:18:27.636Z,3.43
2023-03-30T21:20:54.666Z,4.13
2023-03-30T21:23:29.127Z,3.92
2023-03-30T21:25:59.857Z,4.45
2023-03-30T21:28:29.512Z,3.20
2023-03-30T21:30:57.521Z,4.00
2023-03-30T21:33:26.660Z,4.80
2023-03-30T21:35:55.649Z,3.80
2023-03-30T21:38:24.094Z,4.10
2023-03-30T21:41:23.621Z,4.38
2023-03-30T21:43:50.649Z,3.45
2023-03-30T21:46:22.691Z,3.85
2023-03-30T21:48:53.364Z,4.07
2023-03-30T21:51:27.395Z,4.57
2023-03-30T21:53:55.737Z,4.35
2023-03-30T21:56:25.829Z,3.55
2023-03-30T21:58:53.072Z,3.80
2023-03-30T22:01:21.301Z,4.18
2023-03-30T22:03:48.353Z,4.88
2023-03-30T22:06:17.306Z,4.75
2023-03-30T22:08:45.672Z,3.55
2023-03-30T22:11:16.016Z,4.78
2023-03-30T22:13:44.045Z,4.28
2023-03-30T22:16:13.794Z,4.55
2023-03-30T22:18:41.415Z,4.43
2023-03-30T22:21:11.342Z,5.70
2023-03-30T22:23:38.186Z,5.22
2023-03-30T22:26:06.613Z,5.30
2023-03-30T22:28:34.360Z,5.03
2023-03-30T22:31:01.270Z,4.90
2023-03-30T22:33:28.970Z,4.25
2023-03-30T22:35:57.171Z,4.38
2023-03-30T22:38:24.099Z,4.97
2023-03-30T22:40:51.015Z,4.68
2023-03-30T22:43:17.841Z,4.45
2023-03-30T22:45:44.823Z,5.13
2023-03-30T22:48:11.674Z,4.97
2023-03-30T22:50:38.565Z,4.65
2023-03-30T22:53:05.387Z,4.53
2023-03-30T22:55:32.260Z,4.63
2023-03-30T22:57:59.283Z,3.97
2023-03-30T23:00:26.119Z,5.65
2023-03-30T23:02:53.350Z,5.05
2023-03-30T23:05:25.495Z,5.03
2023-03-30T23:07:52.297Z,4.40
2023-03-30T23:10:23.117Z,5.10
2023-03-30T23:12:50.044Z,6.90
2023-03-30T23:15:18.642Z,4.53
2023-03-30T23:17:47.503Z,4.70
2023-03-30T23:20:15.448Z,4.55
2023-03-30T23:22:42.539Z,4.20
2023-03-30T23:25:10.740Z,4.57
2023-03-30T23:27:37.714Z,4.65
2023-03-30T23:30:05.631Z,3.35
2023-03-30T23:32:34.456Z,4.35
2023-03-30T23:35:02.163Z,3.53
2023-03-30T23:37:30.297Z,3.22
2023-03-30T23:39:58.904Z,4.35
2023-03-30T23:42:26.172Z,4.93
2023-03-30T23:44:53.102Z,3.55
2023-03-30T23:47:20.552Z,3.60
2023-03-30T23:49:47.455Z,3.42
2023-03-30T23:52:14.262Z,3.65
2023-03-30T23:54:41.461Z,3.75
2023-03-30T23:57:09.761Z,3.70
2023-03-30T23:59:37.612Z,4.30
